首页
METAR-TAF:

METAR-TAF

机场 :

Luni

Sarzana, 意大利

纬度: 44-05N, 经度: 009-59E, 海拔: 9米

当前天气观测

该预报发布于3小时和49分钟前的20:55 UTC
风速3节,风向西转西北
温度 27°C
湿度 74%
气压 1020 hPa
能见度10公里或以上
1500米以下无云,无积雨云

METAR: LIQW 252055Z 29003KT CAVOK 27/22 Q1020 RMK SKC VIS MIN 9999 WIND THR18 33004KT BLU

时间: 02:44 (00:44 UTC)

预报

该预报发布于4小时和44分钟前的20:00 UTC
预报有效从25日的 21点(UTC)到 26日的 06点(UTC)
风速8节,风向东南
能见度10公里或以上
1500米以下无云,无积雨云

TAF: LIQW 252000Z 2521/2606 14008KT CAVOK

超过4000个机场的气象观测和天气预报(METAR&TAF报告)。

可查询的气象台以黄色和红色小点在地图上表示。

将鼠标移到小点上方,可查看气象台名称。

然后点击查看天气观测和预报。

如需切换地图:点击带黑十字的绿色按钮放大地图;点击带横线的绿色按钮缩小地图;或者点击绿色箭头查看邻近地区的地图。


METAR-TAF: